sensor_id;sensor_type;location;lat;lon;timestamp;P1;durP1;ratioP1;P2;durP2;ratioP2
79284;SDS011;68734;50.452;11.636;2023-10-13T00:02:01;17.85;;;10.90;;
79284;SDS011;68734;50.452;11.636;2023-10-13T00:04:30;16.67;;;10.75;;
79284;SDS011;68734;50.452;11.636;2023-10-13T00:07:07;15.52;;;9.93;;
79284;SDS011;68734;50.452;11.636;2023-10-13T00:09:35;21.65;;;11.52;;
79284;SDS011;68734;50.452;11.636;2023-10-13T00:12:06;17.55;;;10.90;;
79284;SDS011;68734;50.452;11.636;2023-10-13T00:14:38;17.95;;;9.63;;
79284;SDS011;68734;50.452;11.636;2023-10-13T00:17:06;18.67;;;11.35;;
79284;SDS011;68734;50.452;11.636;2023-10-13T00:19:36;20.48;;;9.88;;
79284;SDS011;68734;50.452;11.636;2023-10-13T00:22:17;19.98;;;11.95;;
79284;SDS011;68734;50.452;11.636;2023-10-13T00:24:47;16.08;;;9.52;;
79284;SDS011;68734;50.452;11.636;2023-10-13T00:27:16;16.30;;;11.02;;
79284;SDS011;68734;50.452;11.636;2023-10-13T00:30:02;20.35;;;10.68;;
79284;SDS011;68734;50.452;11.636;2023-10-13T00:32:50;16.38;;;10.75;;
79284;SDS011;68734;50.452;11.636;2023-10-13T00:35:20;22.90;;;11.25;;
79284;SDS011;68734;50.452;11.636;2023-10-13T00:38:02;20.73;;;12.27;;
79284;SDS011;68734;50.452;11.636;2023-10-13T00:40:42;22.63;;;11.95;;
79284;SDS011;68734;50.452;11.636;2023-10-13T00:43:20;18.00;;;11.70;;
79284;SDS011;68734;50.452;11.636;2023-10-13T00:46:05;27.67;;;12.18;;
79284;SDS011;68734;50.452;11.636;2023-10-13T00:48:35;19.60;;;11.82;;
79284;SDS011;68734;50.452;11.636;2023-10-13T00:51:07;19.90;;;12.00;;
79284;SDS011;68734;50.452;11.636;2023-10-13T00:53:44;24.20;;;12.30;;
79284;SDS011;68734;50.452;11.636;2023-10-13T00:56:13;17.48;;;11.27;;
79284;SDS011;68734;50.452;11.636;2023-10-13T00:58:52;21.17;;;12.63;;
79284;SDS011;68734;50.452;11.636;2023-10-13T01:01:22;23.45;;;13.18;;
79284;SDS011;68734;50.452;11.636;2023-10-13T01:03:54;21.63;;;11.70;;
79284;SDS011;68734;50.452;11.636;2023-10-13T01:06:21;25.80;;;12.63;;
79284;SDS011;68734;50.452;11.636;2023-10-13T01:08:56;22.92;;;11.85;;
79284;SDS011;68734;50.452;11.636;2023-10-13T01:11:35;20.15;;;11.77;;
79284;SDS011;68734;50.452;11.636;2023-10-13T01:14:01;15.20;;;10.43;;
79284;SDS011;68734;50.452;11.636;2023-10-13T01:16:29;17.65;;;11.32;;
79284;SDS011;68734;50.452;11.636;2023-10-13T01:18:55;15.57;;;10.52;;
79284;SDS011;68734;50.452;11.636;2023-10-13T01:21:25;18.70;;;11.75;;
79284;SDS011;68734;50.452;11.636;2023-10-13T01:23:54;19.60;;;11.90;;
79284;SDS011;68734;50.452;11.636;2023-10-13T01:26:22;20.55;;;11.65;;
79284;SDS011;68734;50.452;11.636;2023-10-13T01:28:56;14.18;;;9.88;;
79284;SDS011;68734;50.452;11.636;2023-10-13T01:31:22;14.00;;;9.35;;
79284;SDS011;68734;50.452;11.636;2023-10-13T01:33:56;16.88;;;9.80;;
79284;SDS011;68734;50.452;11.636;2023-10-13T01:36:26;23.05;;;11.93;;
79284;SDS011;68734;50.452;11.636;2023-10-13T01:38:52;19.23;;;9.77;;
79284;SDS011;68734;50.452;11.636;2023-10-13T01:41:20;15.50;;;10.15;;
79284;SDS011;68734;50.452;11.636;2023-10-13T01:43:51;19.55;;;10.38;;
79284;SDS011;68734;50.452;11.636;2023-10-13T01:46:24;17.63;;;10.38;;
79284;SDS011;68734;50.452;11.636;2023-10-13T01:48:53;13.70;;;8.15;;
79284;SDS011;68734;50.452;11.636;2023-10-13T01:51:22;14.30;;;9.45;;
79284;SDS011;68734;50.452;11.636;2023-10-13T01:53:48;14.48;;;8.77;;
79284;SDS011;68734;50.452;11.636;2023-10-13T01:56:21;16.23;;;9.10;;
79284;SDS011;68734;50.452;11.636;2023-10-13T01:58:48;15.60;;;9.55;;
79284;SDS011;68734;50.452;11.636;2023-10-13T02:01:18;16.02;;;10.13;;
79284;SDS011;68734;50.452;11.636;2023-10-13T02:03:55;13.95;;;9.35;;
79284;SDS011;68734;50.452;11.636;2023-10-13T02:06:33;15.80;;;9.88;;
79284;SDS011;68734;50.452;11.636;2023-10-13T02:09:02;14.57;;;8.55;;
79284;SDS011;68734;50.452;11.636;2023-10-13T02:11:41;13.45;;;8.50;;
79284;SDS011;68734;50.452;11.636;2023-10-13T02:14:08;15.48;;;10.07;;
79284;SDS011;68734;50.452;11.636;2023-10-13T02:16:37;13.63;;;9.93;;
79284;SDS011;68734;50.452;11.636;2023-10-13T02:19:07;18.35;;;9.38;;
79284;SDS011;68734;50.452;11.636;2023-10-13T02:21:34;14.32;;;9.60;;
79284;SDS011;68734;50.452;11.636;2023-10-13T02:24:07;16.02;;;9.70;;
79284;SDS011;68734;50.452;11.636;2023-10-13T02:26:44;12.65;;;8.73;;
79284;SDS011;68734;50.452;11.636;2023-10-13T02:29:12;18.73;;;9.55;;
79284;SDS011;68734;50.452;11.636;2023-10-13T02:31:42;14.23;;;9.55;;
79284;SDS011;68734;50.452;11.636;2023-10-13T02:34:18;15.30;;;9.32;;
79284;SDS011;68734;50.452;11.636;2023-10-13T02:36:46;13.60;;;8.35;;
79284;SDS011;68734;50.452;11.636;2023-10-13T02:39:17;11.98;;;8.40;;
79284;SDS011;68734;50.452;11.636;2023-10-13T02:41:55;14.85;;;8.32;;
79284;SDS011;68734;50.452;11.636;2023-10-13T02:44:21;14.35;;;7.45;;
79284;SDS011;68734;50.452;11.636;2023-10-13T02:46:56;15.55;;;9.38;;
79284;SDS011;68734;50.452;11.636;2023-10-13T02:49:25;14.18;;;8.48;;
79284;SDS011;68734;50.452;11.636;2023-10-13T02:51:56;11.25;;;8.23;;
79284;SDS011;68734;50.452;11.636;2023-10-13T02:54:26;23.10;;;8.77;;
79284;SDS011;68734;50.452;11.636;2023-10-13T02:56:56;12.43;;;7.85;;
79284;SDS011;68734;50.452;11.636;2023-10-13T02:59:29;13.43;;;7.60;;
79284;SDS011;68734;50.452;11.636;2023-10-13T03:02:11;13.48;;;8.80;;
79284;SDS011;68734;50.452;11.636;2023-10-13T03:04:46;14.05;;;8.05;;
79284;SDS011;68734;50.452;11.636;2023-10-13T03:07:14;11.18;;;7.82;;
79284;SDS011;68734;50.452;11.636;2023-10-13T03:09:49;18.23;;;8.05;;
79284;SDS011;68734;50.452;11.636;2023-10-13T03:12:23;12.77;;;9.05;;
79284;SDS011;68734;50.452;11.636;2023-10-13T03:14:50;12.68;;;7.60;;
79284;SDS011;68734;50.452;11.636;2023-10-13T03:17:37;14.70;;;7.70;;
79284;SDS011;68734;50.452;11.636;2023-10-13T03:20:08;13.07;;;7.10;;
79284;SDS011;68734;50.452;11.636;2023-10-13T03:22:38;12.20;;;8.40;;
79284;SDS011;68734;50.452;11.636;2023-10-13T03:25:04;15.02;;;7.68;;
79284;SDS011;68734;50.452;11.636;2023-10-13T03:27:34;13.75;;;7.95;;
79284;SDS011;68734;50.452;11.636;2023-10-13T03:30:13;21.40;;;8.77;;
79284;SDS011;68734;50.452;11.636;2023-10-13T03:32:41;15.15;;;8.68;;
79284;SDS011;68734;50.452;11.636;2023-10-13T03:35:18;14.02;;;9.70;;
79284;SDS011;68734;50.452;11.636;2023-10-13T03:37:52;14.88;;;7.95;;
79284;SDS011;68734;50.452;11.636;2023-10-13T03:40:19;14.90;;;9.43;;
79284;SDS011;68734;50.452;11.636;2023-10-13T03:45:35;15.43;;;8.85;;
79284;SDS011;68734;50.452;11.636;2023-10-13T03:48:07;16.73;;;9.65;;
79284;SDS011;68734;50.452;11.636;2023-10-13T03:50:55;15.38;;;8.77;;
79284;SDS011;68734;50.452;11.636;2023-10-13T03:53:27;17.40;;;9.38;;
79284;SDS011;68734;50.452;11.636;2023-10-13T03:55:58;12.75;;;8.90;;
79284;SDS011;68734;50.452;11.636;2023-10-13T03:58:33;10.75;;;7.72;;
79284;SDS011;68734;50.452;11.636;2023-10-13T04:01:00;11.55;;;6.70;;
79284;SDS011;68734;50.452;11.636;2023-10-13T04:03:26;9.45;;;6.75;;
79284;SDS011;68734;50.452;11.636;2023-10-13T04:06:09;11.60;;;7.18;;
79284;SDS011;68734;50.452;11.636;2023-10-13T04:08:41;13.77;;;7.53;;
79284;SDS011;68734;50.452;11.636;2023-10-13T04:11:13;10.07;;;6.82;;
79284;SDS011;68734;50.452;11.636;2023-10-13T04:16:41;11.82;;;8.00;;
79284;SDS011;68734;50.452;11.636;2023-10-13T04:19:18;12.27;;;6.70;;
79284;SDS011;68734;50.452;11.636;2023-10-13T04:21:51;12.07;;;7.30;;
79284;SDS011;68734;50.452;11.636;2023-10-13T04:24:39;14.68;;;7.85;;
79284;SDS011;68734;50.452;11.636;2023-10-13T04:27:21;22.48;;;7.13;;
79284;SDS011;68734;50.452;11.636;2023-10-13T04:30:03;9.15;;;6.90;;
79284;SDS011;68734;50.452;11.636;2023-10-13T04:32:32;13.10;;;7.53;;
79284;SDS011;68734;50.452;11.636;2023-10-13T04:37:45;12.82;;;7.03;;
79284;SDS011;68734;50.452;11.636;2023-10-13T04:40:26;10.88;;;6.38;;
79284;SDS011;68734;50.452;11.636;2023-10-13T04:43:02;10.73;;;5.78;;
79284;SDS011;68734;50.452;11.636;2023-10-13T04:45:50;9.00;;;6.43;;
79284;SDS011;68734;50.452;11.636;2023-10-13T04:48:19;9.32;;;6.43;;
79284;SDS011;68734;50.452;11.636;2023-10-13T04:50:46;9.35;;;6.57;;
79284;SDS011;68734;50.452;11.636;2023-10-13T04:53:17;13.10;;;6.53;;
79284;SDS011;68734;50.452;11.636;2023-10-13T04:56:01;14.90;;;8.30;;
79284;SDS011;68734;50.452;11.636;2023-10-13T04:58:32;9.88;;;6.20;;
79284;SDS011;68734;50.452;11.636;2023-10-13T05:01:01;15.63;;;6.55;;
79284;SDS011;68734;50.452;11.636;2023-10-13T05:03:48;9.90;;;6.40;;
79284;SDS011;68734;50.452;11.636;2023-10-13T05:06:23;12.50;;;8.02;;
79284;SDS011;68734;50.452;11.636;2023-10-13T05:09:06;11.75;;;6.85;;
79284;SDS011;68734;50.452;11.636;2023-10-13T05:11:51;12.13;;;7.35;;
79284;SDS011;68734;50.452;11.636;2023-10-13T05:14:34;12.93;;;7.47;;
79284;SDS011;68734;50.452;11.636;2023-10-13T05:17:18;13.18;;;7.28;;
79284;SDS011;68734;50.452;11.636;2023-10-13T05:20:05;12.77;;;7.03;;
79284;SDS011;68734;50.452;11.636;2023-10-13T05:22:49;14.05;;;7.28;;
79284;SDS011;68734;50.452;11.636;2023-10-13T05:25:37;12.05;;;7.22;;
79284;SDS011;68734;50.452;11.636;2023-10-13T05:28:21;13.95;;;6.50;;
79284;SDS011;68734;50.452;11.636;2023-10-13T05:31:08;12.85;;;7.63;;
79284;SDS011;68734;50.452;11.636;2023-10-13T05:33:52;9.52;;;6.90;;
79284;SDS011;68734;50.452;11.636;2023-10-13T05:36:36;14.40;;;7.85;;
79284;SDS011;68734;50.452;11.636;2023-10-13T05:39:20;13.07;;;7.63;;
79284;SDS011;68734;50.452;11.636;2023-10-13T05:42:05;15.43;;;7.63;;
79284;SDS011;68734;50.452;11.636;2023-10-13T05:44:49;12.77;;;8.43;;
79284;SDS011;68734;50.452;11.636;2023-10-13T05:50:08;12.07;;;7.30;;
79284;SDS011;68734;50.452;11.636;2023-10-13T05:52:46;18.25;;;9.85;;
79284;SDS011;68734;50.452;11.636;2023-10-13T05:58:16;13.75;;;7.47;;
79284;SDS011;68734;50.452;11.636;2023-10-13T06:01:00;16.40;;;7.72;;
79284;SDS011;68734;50.452;11.636;2023-10-13T06:03:44;14.55;;;7.75;;
79284;SDS011;68734;50.452;11.636;2023-10-13T06:06:30;12.27;;;7.30;;
79284;SDS011;68734;50.452;11.636;2023-10-13T06:09:14;12.02;;;6.72;;
79284;SDS011;68734;50.452;11.636;2023-10-13T06:11:58;10.27;;;6.70;;
79284;SDS011;68734;50.452;11.636;2023-10-13T06:14:46;14.15;;;7.35;;
79284;SDS011;68734;50.452;11.636;2023-10-13T06:17:30;12.90;;;6.85;;
79284;SDS011;68734;50.452;11.636;2023-10-13T06:20:14;9.50;;;7.97;;
79284;SDS011;68734;50.452;11.636;2023-10-13T06:22:58;8.38;;;5.43;;
79284;SDS011;68734;50.452;11.636;2023-10-13T06:25:51;10.93;;;5.70;;
79284;SDS011;68734;50.452;11.636;2023-10-13T06:28:40;12.52;;;5.35;;
79284;SDS011;68734;50.452;11.636;2023-10-13T06:31:05;11.52;;;5.57;;
79284;SDS011;68734;50.452;11.636;2023-10-13T06:33:37;12.18;;;6.30;;
79284;SDS011;68734;50.452;11.636;2023-10-13T06:36:10;14.90;;;6.55;;
79284;SDS011;68734;50.452;11.636;2023-10-13T06:38:36;8.10;;;5.13;;
79284;SDS011;68734;50.452;11.636;2023-10-13T06:41:02;9.40;;;5.63;;
79284;SDS011;68734;50.452;11.636;2023-10-13T06:43:34;10.88;;;6.40;;
79284;SDS011;68734;50.452;11.636;2023-10-13T06:46:11;10.27;;;5.78;;
79284;SDS011;68734;50.452;11.636;2023-10-13T06:48:40;11.60;;;5.70;;
79284;SDS011;68734;50.452;11.636;2023-10-13T06:51:06;14.27;;;5.82;;
79284;SDS011;68734;50.452;11.636;2023-10-13T06:53:51;14.30;;;6.90;;
79284;SDS011;68734;50.452;11.636;2023-10-13T06:56:21;11.38;;;6.18;;
79284;SDS011;68734;50.452;11.636;2023-10-13T06:58:53;13.00;;;6.85;;
79284;SDS011;68734;50.452;11.636;2023-10-13T07:01:24;12.05;;;5.90;;
79284;SDS011;68734;50.452;11.636;2023-10-13T07:03:52;8.07;;;5.07;;
79284;SDS011;68734;50.452;11.636;2023-10-13T07:06:26;7.68;;;5.03;;
79284;SDS011;68734;50.452;11.636;2023-10-13T07:08:52;11.05;;;5.07;;
79284;SDS011;68734;50.452;11.636;2023-10-13T07:11:23;9.65;;;5.40;;
79284;SDS011;68734;50.452;11.636;2023-10-13T07:14:01;8.25;;;4.60;;
79284;SDS011;68734;50.452;11.636;2023-10-13T07:19:26;9.48;;;6.03;;
79284;SDS011;68734;50.452;11.636;2023-10-13T07:21:55;10.40;;;4.55;;
79284;SDS011;68734;50.452;11.636;2023-10-13T07:24:27;9.15;;;4.88;;
79284;SDS011;68734;50.452;11.636;2023-10-13T07:26:58;9.98;;;4.45;;
79284;SDS011;68734;50.452;11.636;2023-10-13T07:29:30;7.53;;;4.97;;
79284;SDS011;68734;50.452;11.636;2023-10-13T07:31:59;10.90;;;7.55;;
79284;SDS011;68734;50.452;11.636;2023-10-13T07:34:28;12.65;;;6.10;;
79284;SDS011;68734;50.452;11.636;2023-10-13T07:37:01;13.18;;;5.97;;
79284;SDS011;68734;50.452;11.636;2023-10-13T07:39:32;10.80;;;5.20;;
79284;SDS011;68734;50.452;11.636;2023-10-13T07:42:04;9.88;;;4.90;;
79284;SDS011;68734;50.452;11.636;2023-10-13T07:44:33;14.18;;;7.78;;
79284;SDS011;68734;50.452;11.636;2023-10-13T07:47:02;9.57;;;5.38;;
79284;SDS011;68734;50.452;11.636;2023-10-13T07:49:36;13.90;;;4.97;;
79284;SDS011;68734;50.452;11.636;2023-10-13T07:52:09;10.32;;;6.82;;
79284;SDS011;68734;50.452;11.636;2023-10-13T07:54:47;11.20;;;4.68;;
79284;SDS011;68734;50.452;11.636;2023-10-13T07:57:24;12.50;;;4.35;;
79284;SDS011;68734;50.452;11.636;2023-10-13T07:59:58;12.02;;;4.75;;
79284;SDS011;68734;50.452;11.636;2023-10-13T08:02:55;9.02;;;5.53;;
79284;SDS011;68734;50.452;11.636;2023-10-13T08:05:44;12.30;;;5.35;;
79284;SDS011;68734;50.452;11.636;2023-10-13T08:08:29;8.80;;;5.22;;
79284;SDS011;68734;50.452;11.636;2023-10-13T08:11:05;11.63;;;5.68;;
79284;SDS011;68734;50.452;11.636;2023-10-13T08:13:43;9.57;;;4.28;;
79284;SDS011;68734;50.452;11.636;2023-10-13T08:16:28;8.90;;;4.43;;
79284;SDS011;68734;50.452;11.636;2023-10-13T08:19:14;8.00;;;4.05;;
79284;SDS011;68734;50.452;11.636;2023-10-13T08:21:44;9.82;;;5.20;;
79284;SDS011;68734;50.452;11.636;2023-10-13T08:24:26;11.98;;;4.32;;
79284;SDS011;68734;50.452;11.636;2023-10-13T08:27:18;9.85;;;4.78;;
79284;SDS011;68734;50.452;11.636;2023-10-13T08:30:13;8.50;;;4.32;;
79284;SDS011;68734;50.452;11.636;2023-10-13T08:32:59;15.05;;;6.90;;
79284;SDS011;68734;50.452;11.636;2023-10-13T08:35:29;10.60;;;5.05;;
79284;SDS011;68734;50.452;11.636;2023-10-13T08:38:01;15.75;;;4.63;;
79284;SDS011;68734;50.452;11.636;2023-10-13T08:40:39;8.82;;;4.50;;
79284;SDS011;68734;50.452;11.636;2023-10-13T08:43:30;12.15;;;4.25;;
79284;SDS011;68734;50.452;11.636;2023-10-13T08:46:08;10.80;;;4.03;;
79284;SDS011;68734;50.452;11.636;2023-10-13T08:48:34;12.75;;;6.15;;
79284;SDS011;68734;50.452;11.636;2023-10-13T08:51:01;12.35;;;7.38;;
79284;SDS011;68734;50.452;11.636;2023-10-13T08:53:34;7.88;;;4.47;;
79284;SDS011;68734;50.452;11.636;2023-10-13T08:56:17;8.18;;;4.25;;
79284;SDS011;68734;50.452;11.636;2023-10-13T09:01:35;5.55;;;3.75;;
79284;SDS011;68734;50.452;11.636;2023-10-13T09:04:04;12.30;;;5.50;;
79284;SDS011;68734;50.452;11.636;2023-10-13T09:12:24;9.23;;;4.13;;
79284;SDS011;68734;50.452;11.636;2023-10-13T09:17:49;5.32;;;3.90;;
79284;SDS011;68734;50.452;11.636;2023-10-13T09:20:15;7.60;;;4.18;;
79284;SDS011;68734;50.452;11.636;2023-10-13T09:22:47;7.72;;;4.30;;
79284;SDS011;68734;50.452;11.636;2023-10-13T09:25:29;10.07;;;3.75;;
79284;SDS011;68734;50.452;11.636;2023-10-13T09:28:00;13.55;;;3.83;;
79284;SDS011;68734;50.452;11.636;2023-10-13T09:30:27;8.90;;;4.28;;
79284;SDS011;68734;50.452;11.636;2023-10-13T09:33:05;8.48;;;4.40;;
79284;SDS011;68734;50.452;11.636;2023-10-13T09:35:33;15.70;;;4.13;;
79284;SDS011;68734;50.452;11.636;2023-10-13T09:38:02;9.30;;;4.40;;
79284;SDS011;68734;50.452;11.636;2023-10-13T09:40:29;12.20;;;4.75;;
79284;SDS011;68734;50.452;11.636;2023-10-13T09:43:23;8.05;;;3.30;;
79284;SDS011;68734;50.452;11.636;2023-10-13T09:46:02;5.05;;;3.30;;
79284;SDS011;68734;50.452;11.636;2023-10-13T09:48:33;8.73;;;3.78;;
79284;SDS011;68734;50.452;11.636;2023-10-13T09:51:02;8.45;;;4.30;;
79284;SDS011;68734;50.452;11.636;2023-10-13T09:53:34;13.90;;;4.10;;
79284;SDS011;68734;50.452;11.636;2023-10-13T09:58:51;7.78;;;3.17;;
79284;SDS011;68734;50.452;11.636;2023-10-13T10:01:36;11.32;;;3.80;;
79284;SDS011;68734;50.452;11.636;2023-10-13T10:04:15;8.75;;;3.75;;
79284;SDS011;68734;50.452;11.636;2023-10-13T10:06:51;8.73;;;3.60;;
79284;SDS011;68734;50.452;11.636;2023-10-13T10:09:17;9.65;;;5.03;;
79284;SDS011;68734;50.452;11.636;2023-10-13T10:12:09;8.70;;;4.05;;
79284;SDS011;68734;50.452;11.636;2023-10-13T10:17:53;6.93;;;4.15;;
79284;SDS011;68734;50.452;11.636;2023-10-13T10:20:27;5.85;;;3.55;;
79284;SDS011;68734;50.452;11.636;2023-10-13T10:23:05;5.15;;;3.58;;
79284;SDS011;68734;50.452;11.636;2023-10-13T10:25:35;7.43;;;4.25;;
79284;SDS011;68734;50.452;11.636;2023-10-13T10:28:09;8.93;;;4.07;;
79284;SDS011;68734;50.452;11.636;2023-10-13T10:30:36;9.45;;;4.20;;
79284;SDS011;68734;50.452;11.636;2023-10-13T10:33:07;9.10;;;3.75;;
79284;SDS011;68734;50.452;11.636;2023-10-13T10:35:44;7.65;;;3.83;;
79284;SDS011;68734;50.452;11.636;2023-10-13T10:38:12;4.68;;;3.25;;
79284;SDS011;68734;50.452;11.636;2023-10-13T10:41:02;6.82;;;3.50;;
79284;SDS011;68734;50.452;11.636;2023-10-13T10:43:39;11.13;;;4.10;;
79284;SDS011;68734;50.452;11.636;2023-10-13T10:46:11;9.77;;;4.10;;
79284;SDS011;68734;50.452;11.636;2023-10-13T10:48:38;9.60;;;3.58;;
79284;SDS011;68734;50.452;11.636;2023-10-13T10:51:08;7.28;;;4.00;;
79284;SDS011;68734;50.452;11.636;2023-10-13T10:53:50;8.20;;;3.97;;
79284;SDS011;68734;50.452;11.636;2023-10-13T10:56:17;7.30;;;3.95;;
79284;SDS011;68734;50.452;11.636;2023-10-13T10:59:05;17.67;;;3.70;;
79284;SDS011;68734;50.452;11.636;2023-10-13T11:01:44;12.40;;;3.78;;
79284;SDS011;68734;50.452;11.636;2023-10-13T11:04:16;9.68;;;4.30;;
79284;SDS011;68734;50.452;11.636;2023-10-13T11:06:54;16.38;;;4.45;;
79284;SDS011;68734;50.452;11.636;2023-10-13T11:12:14;6.07;;;3.88;;
79284;SDS011;68734;50.452;11.636;2023-10-13T11:14:43;7.95;;;3.95;;
79284;SDS011;68734;50.452;11.636;2023-10-13T11:17:23;11.80;;;3.70;;
79284;SDS011;68734;50.452;11.636;2023-10-13T11:20:07;8.93;;;3.63;;
79284;SDS011;68734;50.452;11.636;2023-10-13T11:22:40;8.43;;;3.55;;
79284;SDS011;68734;50.452;11.636;2023-10-13T11:25:19;7.75;;;4.40;;
79284;SDS011;68734;50.452;11.636;2023-10-13T11:27:48;9.98;;;4.22;;
79284;SDS011;68734;50.452;11.636;2023-10-13T11:30:13;6.20;;;3.63;;
79284;SDS011;68734;50.452;11.636;2023-10-13T11:32:44;5.88;;;3.42;;
79284;SDS011;68734;50.452;11.636;2023-10-13T11:35:12;10.98;;;3.50;;
79284;SDS011;68734;50.452;11.636;2023-10-13T11:37:46;6.20;;;3.30;;
79284;SDS011;68734;50.452;11.636;2023-10-13T11:40:22;6.20;;;3.88;;
79284;SDS011;68734;50.452;11.636;2023-10-13T11:43:11;8.90;;;3.85;;
79284;SDS011;68734;50.452;11.636;2023-10-13T11:45:47;7.45;;;4.28;;
79284;SDS011;68734;50.452;11.636;2023-10-13T11:48:23;7.72;;;3.25;;
79284;SDS011;68734;50.452;11.636;2023-10-13T11:51:08;10.70;;;4.10;;
79284;SDS011;68734;50.452;11.636;2023-10-13T11:53:48;9.32;;;3.75;;
79284;SDS011;68734;50.452;11.636;2023-10-13T11:56:17;5.65;;;3.38;;
79284;SDS011;68734;50.452;11.636;2023-10-13T11:58:45;8.30;;;3.47;;
79284;SDS011;68734;50.452;11.636;2023-10-13T12:01:12;7.20;;;4.07;;
79284;SDS011;68734;50.452;11.636;2023-10-13T12:03:41;5.80;;;3.20;;
79284;SDS011;68734;50.452;11.636;2023-10-13T12:06:26;4.63;;;3.40;;
79284;SDS011;68734;50.452;11.636;2023-10-13T12:11:46;6.10;;;3.10;;
79284;SDS011;68734;50.452;11.636;2023-10-13T12:14:19;7.28;;;3.47;;
79284;SDS011;68734;50.452;11.636;2023-10-13T12:16:52;8.10;;;3.53;;
79284;SDS011;68734;50.452;11.636;2023-10-13T12:19:19;8.55;;;3.70;;
79284;SDS011;68734;50.452;11.636;2023-10-13T12:21:51;9.23;;;4.38;;
79284;SDS011;68734;50.452;11.636;2023-10-13T12:24:28;7.40;;;4.40;;
79284;SDS011;68734;50.452;11.636;2023-10-13T12:27:02;8.73;;;3.20;;
79284;SDS011;68734;50.452;11.636;2023-10-13T12:29:43;6.00;;;3.85;;
79284;SDS011;68734;50.452;11.636;2023-10-13T12:32:16;7.68;;;3.80;;
79284;SDS011;68734;50.452;11.636;2023-10-13T12:34:47;7.95;;;4.47;;
79284;SDS011;68734;50.452;11.636;2023-10-13T12:37:25;6.15;;;3.60;;
79284;SDS011;68734;50.452;11.636;2023-10-13T12:40:05;9.77;;;4.00;;
79284;SDS011;68734;50.452;11.636;2023-10-13T12:42:50;4.90;;;3.35;;
79284;SDS011;68734;50.452;11.636;2023-10-13T12:48:25;4.63;;;2.88;;
79284;SDS011;68734;50.452;11.636;2023-10-13T12:53:56;7.60;;;3.20;;
79284;SDS011;68734;50.452;11.636;2023-10-13T12:56:30;6.85;;;3.30;;
79284;SDS011;68734;50.452;11.636;2023-10-13T12:58:55;10.15;;;3.80;;
79284;SDS011;68734;50.452;11.636;2023-10-13T13:01:22;7.47;;;3.10;;
79284;SDS011;68734;50.452;11.636;2023-10-13T13:03:52;9.02;;;3.97;;
79284;SDS011;68734;50.452;11.636;2023-10-13T13:06:27;4.95;;;3.28;;
79284;SDS011;68734;50.452;11.636;2023-10-13T13:08:58;7.40;;;3.70;;
79284;SDS011;68734;50.452;11.636;2023-10-13T13:11:25;7.57;;;4.20;;
79284;SDS011;68734;50.452;11.636;2023-10-13T13:13:53;11.30;;;4.82;;
79284;SDS011;68734;50.452;11.636;2023-10-13T13:16:27;6.55;;;3.47;;
79284;SDS011;68734;50.452;11.636;2023-10-13T13:18:55;8.80;;;3.85;;
79284;SDS011;68734;50.452;11.636;2023-10-13T13:21:23;7.57;;;3.20;;
79284;SDS011;68734;50.452;11.636;2023-10-13T13:23:52;9.82;;;3.45;;
79284;SDS011;68734;50.452;11.636;2023-10-13T13:26:24;6.00;;;3.13;;
79284;SDS011;68734;50.452;11.636;2023-10-13T13:28:49;6.32;;;2.80;;
79284;SDS011;68734;50.452;11.636;2023-10-13T13:31:18;8.35;;;3.55;;
79284;SDS011;68734;50.452;11.636;2023-10-13T13:33:50;7.50;;;3.35;;
79284;SDS011;68734;50.452;11.636;2023-10-13T13:36:15;8.80;;;3.65;;
79284;SDS011;68734;50.452;11.636;2023-10-13T13:38:44;5.25;;;3.33;;
79284;SDS011;68734;50.452;11.636;2023-10-13T13:41:17;6.95;;;3.05;;
79284;SDS011;68734;50.452;11.636;2023-10-13T13:43:43;6.75;;;3.00;;
79284;SDS011;68734;50.452;11.636;2023-10-13T13:46:18;6.20;;;3.55;;
79284;SDS011;68734;50.452;11.636;2023-10-13T13:48:52;5.03;;;3.53;;
79284;SDS011;68734;50.452;11.636;2023-10-13T13:51:31;6.53;;;3.20;;
79284;SDS011;68734;50.452;11.636;2023-10-13T13:53:58;5.65;;;3.30;;
79284;SDS011;68734;50.452;11.636;2023-10-13T13:56:26;11.77;;;3.65;;
79284;SDS011;68734;50.452;11.636;2023-10-13T13:58:56;9.32;;;4.00;;
79284;SDS011;68734;50.452;11.636;2023-10-13T14:01:21;6.93;;;3.58;;
79284;SDS011;68734;50.452;11.636;2023-10-13T14:03:49;8.98;;;3.55;;
79284;SDS011;68734;50.452;11.636;2023-10-13T14:06:18;6.15;;;3.25;;
79284;SDS011;68734;50.452;11.636;2023-10-13T14:08:57;7.25;;;3.17;;
79284;SDS011;68734;50.452;11.636;2023-10-13T14:11:39;5.15;;;3.33;;
79284;SDS011;68734;50.452;11.636;2023-10-13T14:14:26;7.82;;;3.28;;
79284;SDS011;68734;50.452;11.636;2023-10-13T14:16:54;8.82;;;3.00;;
79284;SDS011;68734;50.452;11.636;2023-10-13T14:19:33;6.43;;;3.10;;
79284;SDS011;68734;50.452;11.636;2023-10-13T14:21:59;6.30;;;3.25;;
79284;SDS011;68734;50.452;11.636;2023-10-13T14:24:31;6.25;;;3.70;;
79284;SDS011;68734;50.452;11.636;2023-10-13T14:27:01;9.35;;;3.38;;
79284;SDS011;68734;50.452;11.636;2023-10-13T14:29:37;8.80;;;3.42;;
79284;SDS011;68734;50.452;11.636;2023-10-13T14:32:08;6.15;;;2.95;;
79284;SDS011;68734;50.452;11.636;2023-10-13T14:34:42;3.75;;;2.78;;
79284;SDS011;68734;50.452;11.636;2023-10-13T14:37:10;7.38;;;3.38;;
79284;SDS011;68734;50.452;11.636;2023-10-13T14:39:51;5.90;;;3.58;;
79284;SDS011;68734;50.452;11.636;2023-10-13T14:42:26;6.85;;;2.47;;
79284;SDS011;68734;50.452;11.636;2023-10-13T14:44:52;7.95;;;2.67;;
79284;SDS011;68734;50.452;11.636;2023-10-13T14:47:23;5.93;;;2.55;;
79284;SDS011;68734;50.452;11.636;2023-10-13T14:49:55;6.43;;;3.67;;
79284;SDS011;68734;50.452;11.636;2023-10-13T14:52:25;6.22;;;2.83;;
79284;SDS011;68734;50.452;11.636;2023-10-13T14:54:51;10.70;;;3.30;;
79284;SDS011;68734;50.452;11.636;2023-10-13T14:57:20;6.18;;;3.38;;
79284;SDS011;68734;50.452;11.636;2023-10-13T14:59:53;6.45;;;3.05;;
79284;SDS011;68734;50.452;11.636;2023-10-13T15:02:19;8.20;;;2.95;;
79284;SDS011;68734;50.452;11.636;2023-10-13T15:04:47;6.97;;;3.05;;
79284;SDS011;68734;50.452;11.636;2023-10-13T15:07:16;9.18;;;3.38;;
79284;SDS011;68734;50.452;11.636;2023-10-13T15:09:50;7.15;;;2.83;;
79284;SDS011;68734;50.452;11.636;2023-10-13T15:12:15;7.95;;;3.22;;
79284;SDS011;68734;50.452;11.636;2023-10-13T15:14:40;10.13;;;2.85;;
79284;SDS011;68734;50.452;11.636;2023-10-13T15:17:09;5.40;;;2.72;;
79284;SDS011;68734;50.452;11.636;2023-10-13T15:19:41;10.95;;;3.53;;
79284;SDS011;68734;50.452;11.636;2023-10-13T15:22:08;5.70;;;2.70;;
79284;SDS011;68734;50.452;11.636;2023-10-13T15:24:41;6.65;;;2.92;;
79284;SDS011;68734;50.452;11.636;2023-10-13T15:27:22;7.70;;;3.22;;
79284;SDS011;68734;50.452;11.636;2023-10-13T15:29:48;6.50;;;2.90;;
79284;SDS011;68734;50.452;11.636;2023-10-13T15:32:16;5.53;;;3.47;;
79284;SDS011;68734;50.452;11.636;2023-10-13T15:35:00;4.97;;;2.78;;
79284;SDS011;68734;50.452;11.636;2023-10-13T15:37:25;9.60;;;3.00;;
79284;SDS011;68734;50.452;11.636;2023-10-13T15:39:51;6.88;;;3.35;;
79284;SDS011;68734;50.452;11.636;2023-10-13T15:42:19;5.80;;;3.60;;
79284;SDS011;68734;50.452;11.636;2023-10-13T15:44:46;6.95;;;4.32;;
79284;SDS011;68734;50.452;11.636;2023-10-13T15:47:11;7.70;;;3.78;;
79284;SDS011;68734;50.452;11.636;2023-10-13T15:49:37;8.65;;;3.53;;
79284;SDS011;68734;50.452;11.636;2023-10-13T15:52:06;6.57;;;3.35;;